Time;durP1;ratioP1;P1;durP2;ratioP2;P2;SDS_P1;SDS_P2;PMS_P1;PMS_P2;Temp;Humidity;BMP_temperature;BMP_pressure;BME280_temperature;BME280_humidity;BME280_pressure;Samples;Min_cycle;Max_cycle;Signal;HPM_P1;HPM_P2
2022/12/25 00:02:02;;;;;;;36.78;24.95;;;;;;;;;;4990445;28;20506;-67
2022/12/25 00:04:28;;;;;;;44.20;27.75;;;;;;;;;;4983783;28;20144;-67
2022/12/25 00:06:54;;;;;;;43.38;25.92;;;;;;;;;;4972187;28;20097;-67
2022/12/25 00:09:20;;;;;;;38.47;24.85;;;;;;;;;;4970897;28;20026;-66
2022/12/25 00:11:47;;;;;;;38.45;24.88;;;;;;;;;;4971796;28;20551;-66
2022/12/25 00:14:13;;;;;;;39.47;26.40;;;;;;;;;;4974574;28;20037;-71
2022/12/25 00:16:38;;;;;;;39.42;29.45;;;;;;;;;;4989495;28;20117;-67
2022/12/25 00:19:05;;;;;;;34.88;24.30;;;;;;;;;;4991382;28;20026;-65
2022/12/25 00:21:32;;;;;;;43.58;26.15;;;;;;;;;;4991219;28;20398;-65
2022/12/25 00:23:58;;;;;;;38.20;24.73;;;;;;;;;;4990876;28;20026;-63
2022/12/25 00:26:43;;;;;;;38.84;23.74;;;;;;;;;;4933935;28;10001167;-64
2022/12/25 00:29:10;;;;;;;34.83;23.20;;;;;;;;;;5007024;23;20365;-65
2022/12/25 00:31:36;;;;;;;32.65;23.45;;;;;;;;;;5009803;28;20025;-65
2022/12/25 00:34:02;;;;;;;36.72;24.10;;;;;;;;;;5008801;28;20029;-65
2022/12/25 00:36:28;;;;;;;42.30;23.65;;;;;;;;;;5009643;28;20029;-66
2022/12/25 00:38:54;;;;;;;42.75;23.73;;;;;;;;;;5009727;28;20445;-65
2022/12/25 00:44:08;;;;;;;32.67;23.23;;;;;;;;;;4988995;28;20030;-65
2022/12/25 00:46:34;;;;;;;39.78;25.48;;;;;;;;;;5009757;28;20276;-66
2022/12/25 00:49:00;;;;;;;36.03;25.13;;;;;;;;;;5010396;28;20028;-65
2022/12/25 00:51:26;;;;;;;37.15;23.95;;;;;;;;;;5011782;28;20029;-65
2022/12/25 00:53:52;;;;;;;31.95;22.58;;;;;;;;;;5010913;28;20030;-66
2022/12/25 00:56:18;;;;;;;36.63;25.02;;;;;;;;;;5011787;28;20498;-65
2022/12/25 00:58:45;;;;;;;34.50;23.35;;;;;;;;;;5010399;28;20030;-66
2022/12/25 01:01:11;;;;;;;37.83;22.67;;;;;;;;;;5011503;28;20101;-65
2022/12/25 01:03:37;;;;;;;36.58;21.85;;;;;;;;;;4993175;28;20030;-66
2022/12/25 01:06:05;;;;;;;35.70;22.95;;;;;;;;;;5013801;28;20105;-64
2022/12/25 01:08:35;;;;;;;30.10;22.30;;;;;;;;;;5015377;28;20049;-65
2022/12/25 01:11:03;;;;;;;33.65;22.30;;;;;;;;;;4997786;28;20030;-65
2022/12/25 01:13:30;;;;;;;35.65;22.70;;;;;;;;;;4996841;28;20117;-66
2022/12/25 01:15:56;;;;;;;34.78;21.08;;;;;;;;;;5015222;28;20450;-65
2022/12/25 01:18:22;;;;;;;33.63;22.55;;;;;;;;;;4997731;28;20475;-65
2022/12/25 01:20:48;;;;;;;34.35;21.42;;;;;;;;;;4997599;28;20033;-65
2022/12/25 01:23:14;;;;;;;27.88;19.67;;;;;;;;;;5014249;28;20026;-66
2022/12/25 01:25:40;;;;;;;30.48;20.42;;;;;;;;;;4997575;28;20498;-65
2022/12/25 01:28:06;;;;;;;31.77;19.75;;;;;;;;;;5015094;28;20018;-66
2022/12/25 01:30:32;;;;;;;31.40;20.25;;;;;;;;;;5014938;28;20037;-64
2022/12/25 01:32:58;;;;;;;32.10;20.23;;;;;;;;;;5014815;28;20033;-65
2022/12/25 01:35:25;;;;;;;28.65;20.00;;;;;;;;;;4996915;28;20034;-65
2022/12/25 01:37:51;;;;;;;37.00;20.52;;;;;;;;;;5014884;28;20103;-65
2022/12/25 01:40:17;;;;;;;31.80;19.98;;;;;;;;;;5014729;28;20036;-66
2022/12/25 01:42:43;;;;;;;33.15;20.88;;;;;;;;;;5014834;28;20097;-66
2022/12/25 01:45:42;;;;;;;31.75;20.02;;;;;;;;;;4996517;28;20566;-66
2022/12/25 01:48:10;;;;;;;30.10;21.33;;;;;;;;;;4965221;28;20040;-65
2022/12/25 01:50:38;;;;;;;34.53;21.15;;;;;;;;;;5014677;28;20367;-66
2022/12/25 01:53:05;;;;;;;38.83;20.77;;;;;;;;;;4996398;28;20122;-64
2022/12/25 01:55:32;;;;;;;28.98;20.73;;;;;;;;;;4996907;28;20034;-66
2022/12/25 01:57:58;;;;;;;30.77;21.92;;;;;;;;;;5014541;28;20022;-65
2022/12/25 02:00:24;;;;;;;28.02;20.00;;;;;;;;;;5014500;28;20030;-66
2022/12/25 02:02:50;;;;;;;30.35;21.70;;;;;;;;;;4996831;28;20084;-64
2022/12/25 02:05:19;;;;;;;28.55;19.67;;;;;;;;;;5013736;28;20034;-65
2022/12/25 02:07:46;;;;;;;25.48;20.60;;;;;;;;;;5014471;28;20026;-66
2022/12/25 02:10:12;;;;;;;30.17;19.98;;;;;;;;;;4996776;28;20022;-65
2022/12/25 02:12:38;;;;;;;28.02;19.75;;;;;;;;;;5014147;28;20075;-65
2022/12/25 02:15:10;;;;;;;28.77;19.13;;;;;;;;;;5013374;28;20080;-65
2022/12/25 02:17:42;;;;;;;30.75;20.48;;;;;;;;;;4996317;28;20022;-66
2022/12/25 02:20:27;;;;;;;30.65;20.15;;;;;;;;;;4996559;28;20052;-66
2022/12/25 02:23:04;;;;;;;28.05;19.63;;;;;;;;;;4996445;28;20371;-65
2022/12/25 02:25:30;;;;;;;28.77;19.27;;;;;;;;;;5013641;28;20026;-65
2022/12/25 02:28:15;;;;;;;29.17;20.30;;;;;;;;;;5013964;28;20037;-67
2022/12/25 02:30:48;;;;;;;30.25;20.75;;;;;;;;;;5013731;28;20030;-66
2022/12/25 02:36:04;;;;;;;26.38;19.52;;;;;;;;;;5014352;28;20096;-66
2022/12/25 02:38:32;;;;;;;28.92;20.10;;;;;;;;;;4996135;28;20371;-66
2022/12/25 02:41:01;;;;;;;24.70;19.05;;;;;;;;;;5013725;28;20022;-67
2022/12/25 03:08:40;;;;;;;26.08;19.33;;;;;;;;;;5013224;28;20076;-66
2022/12/25 03:16:49;;;;;;;26.98;19.42;;;;;;;;;;5012725;28;20092;-66
2022/12/25 03:16:49;;;;;;;26.95;18.77;;;;;;;;;;5013125;28;20451;-66
2022/12/25 03:27:31;;;;;;;29.33;19.98;;;;;;;;;;5012383;28;20087;-66
2022/12/25 03:32:48;;;;;;;23.35;18.48;;;;;;;;;;5013337;28;20107;-66
2022/12/25 03:35:24;;;;;;;23.25;18.45;;;;;;;;;;4994515;28;20042;-66
2022/12/25 03:44:14;;;;;;;24.90;19.60;;;;;;;;;;4968098;28;20397;-66
2022/12/25 04:36:17;;;;;;;25.15;18.52;;;;;;;;;;5012014;28;20033;-66
2022/12/25 04:38:43;;;;;;;23.48;18.20;;;;;;;;;;4994262;28;20033;-66
2022/12/25 04:41:11;;;;;;;27.15;18.70;;;;;;;;;;4996784;28;20471;-66
2022/12/25 04:43:37;;;;;;;28.92;19.73;;;;;;;;;;5015013;28;20026;-66
2022/12/25 04:46:03;;;;;;;25.27;18.63;;;;;;;;;;5015943;28;20029;-64
2022/12/25 04:48:31;;;;;;;23.30;18.98;;;;;;;;;;5015731;28;20463;-67
2022/12/25 04:50:57;;;;;;;23.23;18.67;;;;;;;;;;5015740;28;20029;-66
2022/12/25 04:53:23;;;;;;;22.48;18.65;;;;;;;;;;5015177;28;20025;-66
2022/12/25 04:55:49;;;;;;;25.05;18.95;;;;;;;;;;4998226;28;20060;-66
2022/12/25 04:58:15;;;;;;;27.77;19.92;;;;;;;;;;5015703;28;20030;-66
2022/12/25 05:00:41;;;;;;;21.40;18.55;;;;;;;;;;5015749;28;20018;-65
2022/12/25 05:03:07;;;;;;;23.45;18.98;;;;;;;;;;4997285;28;20030;-64
2022/12/25 05:05:33;;;;;;;24.23;18.38;;;;;;;;;;5015469;28;20033;-65
2022/12/25 05:07:59;;;;;;;21.30;19.00;;;;;;;;;;5015593;28;20363;-65
2022/12/25 05:10:25;;;;;;;25.25;19.90;;;;;;;;;;5015459;28;20030;-65
2022/12/25 05:12:51;;;;;;;25.60;20.33;;;;;;;;;;4997841;28;20026;-65
2022/12/25 05:15:17;;;;;;;24.10;19.00;;;;;;;;;;4997068;28;20124;-65
2022/12/25 05:17:43;;;;;;;22.27;18.73;;;;;;;;;;5015292;28;20022;-66
2022/12/25 05:20:09;;;;;;;24.45;19.35;;;;;;;;;;4997528;28;20033;-66
2022/12/25 05:22:35;;;;;;;28.15;19.98;;;;;;;;;;5015174;28;20030;-67
2022/12/25 05:25:01;;;;;;;24.52;19.13;;;;;;;;;;5014555;28;20022;-66
2022/12/25 05:27:27;;;;;;;24.33;19.38;;;;;;;;;;5015073;28;20486;-67
2022/12/25 05:29:53;;;;;;;27.63;19.33;;;;;;;;;;4997302;28;20042;-66
2022/12/25 05:32:19;;;;;;;24.88;19.13;;;;;;;;;;5014945;28;20029;-66
2022/12/25 05:34:45;;;;;;;25.15;19.83;;;;;;;;;;4996665;28;20041;-66
2022/12/25 05:37:11;;;;;;;24.70;20.20;;;;;;;;;;5014952;28;20030;-66
2022/12/25 05:39:37;;;;;;;27.35;20.15;;;;;;;;;;5014908;28;20025;-66
2022/12/25 05:42:03;;;;;;;23.02;19.95;;;;;;;;;;5014964;28;20033;-67
2022/12/25 05:44:29;;;;;;;24.50;19.67;;;;;;;;;;4996476;28;20026;-66
2022/12/25 05:46:55;;;;;;;23.90;19.35;;;;;;;;;;5014791;28;20036;-66
2022/12/25 05:49:21;;;;;;;24.50;20.38;;;;;;;;;;4996943;28;20109;-66
2022/12/25 05:51:47;;;;;;;22.42;20.13;;;;;;;;;;4993870;28;20402;-66
2022/12/25 05:54:12;;;;;;;22.67;19.58;;;;;;;;;;4994171;28;20110;-66
2022/12/25 05:56:38;;;;;;;25.13;20.08;;;;;;;;;;4977592;28;20609;-66
2022/12/25 05:59:04;;;;;;;22.08;19.27;;;;;;;;;;4994753;28;20034;-66
2022/12/25 06:01:30;;;;;;;23.52;19.20;;;;;;;;;;4994973;28;20483;-66
2022/12/25 06:03:56;;;;;;;22.30;19.23;;;;;;;;;;4994131;28;20189;-66
2022/12/25 06:06:22;;;;;;;24.13;19.98;;;;;;;;;;4994361;28;20033;-67
2022/12/25 06:08:48;;;;;;;24.98;19.95;;;;;;;;;;4994643;28;20035;-66
2022/12/25 06:11:15;;;;;;;23.08;19.73;;;;;;;;;;4994937;28;20034;-65
2022/12/25 06:13:41;;;;;;;24.17;19.27;;;;;;;;;;4994033;28;20504;-66
2022/12/25 06:16:08;;;;;;;25.75;19.50;;;;;;;;;;4994635;28;20057;-67
2022/12/25 06:18:35;;;;;;;24.83;19.45;;;;;;;;;;4994514;28;20027;-66
2022/12/25 06:21:05;;;;;;;24.52;19.02;;;;;;;;;;4994529;28;20050;-66
2022/12/25 06:23:31;;;;;;;24.27;19.48;;;;;;;;;;4976334;28;20623;-66
2022/12/25 06:25:58;;;;;;;26.45;19.77;;;;;;;;;;4995083;28;20030;-65
2022/12/25 06:28:24;;;;;;;26.98;19.55;;;;;;;;;;4998003;28;20113;-66
2022/12/25 06:30:50;;;;;;;24.42;18.85;;;;;;;;;;5027513;23;20037;-65
2022/12/25 06:33:16;;;;;;;22.55;19.27;;;;;;;;;;5031842;28;20034;-64
2022/12/25 06:35:42;;;;;;;24.35;19.60;;;;;;;;;;5032585;28;20107;-65
2022/12/25 06:38:08;;;;;;;24.67;20.15;;;;;;;;;;5032822;28;20029;-64
2022/12/25 06:40:34;;;;;;;25.25;19.10;;;;;;;;;;5032545;28;20396;-65
2022/12/25 06:43:00;;;;;;;23.35;19.38;;;;;;;;;;5014653;28;20026;-65
2022/12/25 06:45:26;;;;;;;24.73;20.48;;;;;;;;;;5012215;28;20379;-66
2022/12/25 06:47:52;;;;;;;23.77;19.98;;;;;;;;;;5043651;28;20025;-65
2022/12/25 06:50:18;;;;;;;26.02;19.65;;;;;;;;;;5029246;28;20034;-65
2022/12/25 06:52:44;;;;;;;24.15;20.33;;;;;;;;;;5027115;28;20022;-63
2022/12/25 06:55:10;;;;;;;26.02;20.40;;;;;;;;;;5012084;28;20184;-64
2022/12/25 06:57:36;;;;;;;26.13;19.63;;;;;;;;;;5012582;28;20117;-63
2022/12/25 07:00:03;;;;;;;24.45;19.73;;;;;;;;;;5012576;28;20494;-63
2022/12/25 07:02:29;;;;;;;22.77;20.10;;;;;;;;;;5008567;28;20183;-65
2022/12/25 07:04:55;;;;;;;22.52;19.25;;;;;;;;;;5031061;28;20102;-65
2022/12/25 07:07:22;;;;;;;27.10;20.48;;;;;;;;;;5014230;28;20112;-66
2022/12/25 07:09:48;;;;;;;22.48;20.05;;;;;;;;;;5031637;28;20119;-64
2022/12/25 07:12:22;;;;;;;23.95;19.75;;;;;;;;;;5031646;28;20049;-65
2022/12/25 07:14:48;;;;;;;27.58;20.83;;;;;;;;;;5031059;28;20104;-65
2022/12/25 07:17:18;;;;;;;25.75;19.73;;;;;;;;;;5032097;28;20029;-64
2022/12/25 07:19:48;;;;;;;22.98;19.77;;;;;;;;;;4997380;28;20034;-63
2022/12/25 07:22:14;;;;;;;25.08;20.30;;;;;;;;;;5011693;28;20036;-65
2022/12/25 07:24:40;;;;;;;23.30;19.58;;;;;;;;;;5010811;28;20083;-63
2022/12/25 07:27:07;;;;;;;25.48;20.85;;;;;;;;;;5011839;28;20127;-65
2022/12/25 07:29:33;;;;;;;29.55;19.63;;;;;;;;;;4994012;28;20030;-64
2022/12/25 07:31:59;;;;;;;24.88;20.40;;;;;;;;;;5011775;28;20108;-65
2022/12/25 07:34:25;;;;;;;23.65;20.30;;;;;;;;;;4993511;28;20161;-64
2022/12/25 07:36:51;;;;;;;21.95;19.50;;;;;;;;;;5011534;28;20032;-65
2022/12/25 07:39:17;;;;;;;24.10;20.05;;;;;;;;;;5011706;28;20029;-64
2022/12/25 07:41:43;;;;;;;23.48;19.73;;;;;;;;;;5011699;28;20105;-64
2022/12/25 07:44:09;;;;;;;21.90;19.70;;;;;;;;;;5014198;28;20100;-64
2022/12/25 07:46:35;;;;;;;22.80;19.42;;;;;;;;;;5031033;28;20021;-65
2022/12/25 07:49:01;;;;;;;26.58;19.77;;;;;;;;;;5013626;28;20448;-65
2022/12/25 07:51:29;;;;;;;27.63;19.75;;;;;;;;;;5013483;28;20053;-65
2022/12/25 07:53:55;;;;;;;22.30;19.30;;;;;;;;;;5030524;28;20448;-64
2022/12/25 07:56:21;;;;;;;24.17;19.80;;;;;;;;;;5013455;28;20025;-65
2022/12/25 07:58:47;;;;;;;25.83;20.73;;;;;;;;;;5013448;28;20041;-65
2022/12/25 08:01:18;;;;;;;23.23;20.30;;;;;;;;;;5013531;28;20093;-65
2022/12/25 08:03:48;;;;;;;27.73;20.65;;;;;;;;;;5030267;28;20033;-64
2022/12/25 08:06:14;;;;;;;24.02;20.20;;;;;;;;;;5031150;28;20022;-65
2022/12/25 08:08:40;;;;;;;22.92;20.33;;;;;;;;;;5013614;28;20501;-63
2022/12/25 08:11:08;;;;;;;23.42;20.33;;;;;;;;;;5031391;28;20026;-63
2022/12/25 08:13:34;;;;;;;24.42;20.20;;;;;;;;;;5030116;28;20474;-64
2022/12/25 08:16:01;;;;;;;22.67;19.70;;;;;;;;;;5031107;28;20097;-66
2022/12/25 08:18:30;;;;;;;23.80;19.95;;;;;;;;;;5031148;28;20343;-64
2022/12/25 08:20:56;;;;;;;25.42;20.65;;;;;;;;;;5013297;28;20075;-68
2022/12/25 08:23:22;;;;;;;23.48;20.98;;;;;;;;;;5011967;28;20498;-66
2022/12/25 08:25:48;;;;;;;24.27;20.50;;;;;;;;;;5030331;28;20026;-67
2022/12/25 08:28:14;;;;;;;27.02;20.90;;;;;;;;;;5037816;28;20020;-67
2022/12/25 08:30:40;;;;;;;22.48;19.90;;;;;;;;;;5050114;28;20033;-67
2022/12/25 08:33:06;;;;;;;22.50;20.10;;;;;;;;;;5031667;28;20504;-66
2022/12/25 08:35:33;;;;;;;24.55;20.83;;;;;;;;;;5032150;28;20025;-69
2022/12/25 08:37:59;;;;;;;23.92;21.48;;;;;;;;;;5050319;28;20026;-67
2022/12/25 08:40:25;;;;;;;23.35;20.90;;;;;;;;;;5049948;28;20531;-66
2022/12/25 08:42:51;;;;;;;23.48;20.98;;;;;;;;;;5050179;28;20124;-64
2022/12/25 08:45:17;;;;;;;22.42;19.95;;;;;;;;;;5048586;28;20576;-64
2022/12/25 08:47:43;;;;;;;23.98;19.98;;;;;;;;;;5030276;28;20022;-68
2022/12/25 08:50:09;;;;;;;22.73;19.23;;;;;;;;;;5030342;28;20025;-67
2022/12/25 08:52:35;;;;;;;22.63;20.15;;;;;;;;;;5030208;28;20026;-64
2022/12/25 08:55:01;;;;;;;23.23;19.70;;;;;;;;;;5029536;28;20087;-64
2022/12/25 08:57:27;;;;;;;21.17;18.83;;;;;;;;;;5012199;28;20053;-64
2022/12/25 08:59:53;;;;;;;24.40;21.08;;;;;;;;;;5011964;28;20073;-64
2022/12/25 09:02:19;;;;;;;24.15;20.63;;;;;;;;;;5027024;28;20029;-66
2022/12/25 09:04:45;;;;;;;22.42;19.80;;;;;;;;;;5029229;28;20114;-65
2022/12/25 09:07:11;;;;;;;22.10;19.70;;;;;;;;;;5030101;28;20033;-65
2022/12/25 09:09:37;;;;;;;24.58;19.88;;;;;;;;;;5030074;28;20025;-64
2022/12/25 09:12:03;;;;;;;23.55;19.42;;;;;;;;;;5030058;28;20056;-64
2022/12/25 09:14:30;;;;;;;21.02;18.73;;;;;;;;;;5029277;28;20105;-64
2022/12/25 09:16:56;;;;;;;20.75;18.25;;;;;;;;;;5030071;28;20025;-64
2022/12/25 09:19:22;;;;;;;22.08;18.95;;;;;;;;;;5029911;28;20370;-65
2022/12/25 09:21:48;;;;;;;24.40;19.38;;;;;;;;;;5030037;28;20527;-65
2022/12/25 09:24:14;;;;;;;24.90;19.20;;;;;;;;;;5029278;28;20088;-64
2022/12/25 09:26:40;;;;;;;21.63;19.08;;;;;;;;;;5033214;28;20026;-64
2022/12/25 09:29:06;;;;;;;24.45;20.17;;;;;;;;;;5035648;28;20022;-63
2022/12/25 09:31:32;;;;;;;22.73;18.48;;;;;;;;;;5036934;28;20021;-64
2022/12/25 09:33:58;;;;;;;20.95;18.60;;;;;;;;;;5036065;28;20025;-64
2022/12/25 09:36:24;;;;;;;21.00;18.80;;;;;;;;;;5015827;28;20069;-66
2022/12/25 09:38:51;;;;;;;21.80;18.15;;;;;;;;;;5009827;28;20030;-64
2022/12/25 09:41:29;;;;;;;23.27;18.35;;;;;;;;;;5022939;28;20116;-63
2022/12/25 09:44:01;;;;;;;21.58;18.77;;;;;;;;;;5021680;28;20101;-63
2022/12/25 09:46:30;;;;;;;33.38;23.50;;;;;;;;;;5020888;28;20539;-64
2022/12/25 09:49:18;;;;;;;34.00;25.40;;;;;;;;;;5022920;28;20026;-63
2022/12/25 09:51:45;;;;;;;34.70;25.58;;;;;;;;;;5017103;28;20484;-65
2022/12/25 09:54:23;;;;;;;34.92;25.65;;;;;;;;;;4997118;28;20057;-66
2022/12/25 09:56:49;;;;;;;30.15;23.92;;;;;;;;;;5013282;28;20070;-66
2022/12/25 09:59:23;;;;;;;27.52;20.95;;;;;;;;;;5002205;28;20040;-67
2022/12/25 10:01:49;;;;;;;22.67;18.88;;;;;;;;;;5032217;28;20398;-66
2022/12/25 10:04:21;;;;;;;21.60;18.42;;;;;;;;;;5032125;28;20028;-66
2022/12/25 10:06:47;;;;;;;23.23;18.75;;;;;;;;;;5016942;28;20022;-64
2022/12/25 10:09:13;;;;;;;26.63;18.52;;;;;;;;;;5012770;28;20076;-65
2022/12/25 10:11:39;;;;;;;21.48;18.73;;;;;;;;;;5013063;28;20025;-65
2022/12/25 10:14:06;;;;;;;20.90;18.50;;;;;;;;;;5012293;28;20084;-66
2022/12/25 10:16:35;;;;;;;22.10;17.73;;;;;;;;;;5012948;28;20034;-65
2022/12/25 10:19:19;;;;;;;21.65;18.92;;;;;;;;;;5012653;28;20036;-65
2022/12/25 10:21:46;;;;;;;20.85;18.63;;;;;;;;;;5011994;28;20048;-66
2022/12/25 10:24:27;;;;;;;23.02;18.58;;;;;;;;;;5012454;28;20025;-63
2022/12/25 10:26:55;;;;;;;22.88;18.73;;;;;;;;;;5013209;28;20088;-63
2022/12/25 10:29:21;;;;;;;21.40;18.27;;;;;;;;;;5013158;28;20482;-65
2022/12/25 10:31:53;;;;;;;22.17;18.13;;;;;;;;;;5013114;28;20026;-63
2022/12/25 10:34:19;;;;;;;20.45;17.60;;;;;;;;;;5012505;28;20026;-63
2022/12/25 10:36:45;;;;;;;22.77;18.85;;;;;;;;;;5012873;28;20034;-63
2022/12/25 10:39:18;;;;;;;22.27;17.45;;;;;;;;;;5012797;28;20402;-63
2022/12/25 10:41:44;;;;;;;22.60;18.58;;;;;;;;;;5012928;28;20026;-64
2022/12/25 10:44:14;;;;;;;24.92;18.95;;;;;;;;;;5011983;28;20105;-63
2022/12/25 10:46:41;;;;;;;24.50;19.23;;;;;;;;;;5024809;28;20032;-60
2022/12/25 10:49:13;;;;;;;22.60;18.15;;;;;;;;;;5032451;28;20025;-63
2022/12/25 10:51:39;;;;;;;21.55;18.05;;;;;;;;;;5033302;28;20385;-63
2022/12/25 10:54:23;;;;;;;24.25;18.77;;;;;;;;;;5032346;28;20033;-63
2022/12/25 10:56:53;;;;;;;22.92;18.73;;;;;;;;;;5014899;28;20022;-63
2022/12/25 10:59:19;;;;;;;23.25;19.40;;;;;;;;;;5026804;28;20017;-63
2022/12/25 11:01:45;;;;;;;23.65;19.42;;;;;;;;;;5012221;28;20014;-63
2022/12/25 11:04:21;;;;;;;22.95;19.20;;;;;;;;;;5011408;28;20414;-63
2022/12/25 11:07:06;;;;;;;23.40;19.20;;;;;;;;;;5028408;28;20497;-61
2022/12/25 11:09:33;;;;;;;22.33;19.13;;;;;;;;;;5021892;28;20026;-63
2022/12/25 11:11:59;;;;;;;21.23;18.92;;;;;;;;;;5003761;28;20056;-63
2022/12/25 11:14:26;;;;;;;22.17;18.90;;;;;;;;;;5018571;28;20516;-63
2022/12/25 11:16:53;;;;;;;22.15;19.02;;;;;;;;;;5021504;28;20041;-63
2022/12/25 11:19:24;;;;;;;22.13;19.35;;;;;;;;;;5023132;28;20108;-63
2022/12/25 11:21:51;;;;;;;23.70;18.73;;;;;;;;;;5028326;28;20021;-63
2022/12/25 11:24:18;;;;;;;21.25;18.85;;;;;;;;;;5000200;28;20132;-63
2022/12/25 11:26:48;;;;;;;21.30;18.45;;;;;;;;;;5021627;28;20031;-63
2022/12/25 11:29:21;;;;;;;23.70;19.13;;;;;;;;;;5024590;28;20433;-61
2022/12/25 11:31:47;;;;;;;22.08;19.17;;;;;;;;;;5020658;28;20029;-60
2022/12/25 11:34:29;;;;;;;24.20;18.40;;;;;;;;;;5019652;28;20485;-61
2022/12/25 11:36:57;;;;;;;22.98;18.58;;;;;;;;;;5018436;28;20161;-63
2022/12/25 11:39:31;;;;;;;21.33;18.58;;;;;;;;;;5020355;28;20452;-61
2022/12/25 11:42:17;;;;;;;22.63;18.73;;;;;;;;;;5002691;28;20494;-62
2022/12/25 11:44:52;;;;;;;25.85;19.33;;;;;;;;;;5020001;28;20109;-61
2022/12/25 11:47:22;;;;;;;23.33;19.50;;;;;;;;;;5022773;28;20014;-61
2022/12/25 11:49:52;;;;;;;21.45;18.70;;;;;;;;;;5001535;28;20018;-60
2022/12/25 11:52:19;;;;;;;23.13;18.90;;;;;;;;;;5020211;28;20022;-60
2022/12/25 11:54:49;;;;;;;22.42;18.92;;;;;;;;;;5020140;28;20548;-60
2022/12/25 11:57:15;;;;;;;22.10;18.42;;;;;;;;;;5019770;28;20047;-60
2022/12/25 12:00:05;;;;;;;21.95;19.02;;;;;;;;;;5021896;28;20024;-61
2022/12/25 12:02:50;;;;;;;21.15;18.95;;;;;;;;;;5019213;28;20026;-59
2022/12/25 12:05:20;;;;;;;20.88;18.30;;;;;;;;;;5015195;28;20036;-60
2022/12/25 12:07:51;;;;;;;20.73;18.63;;;;;;;;;;5009880;28;20080;-59
2022/12/25 12:10:17;;;;;;;21.90;19.60;;;;;;;;;;5011447;28;20117;-59
2022/12/25 12:13:02;;;;;;;22.67;19.83;;;;;;;;;;5011323;28;20041;-60
2022/12/25 12:15:29;;;;;;;22.58;19.45;;;;;;;;;;5011198;28;20040;-60
2022/12/25 12:17:55;;;;;;;25.17;20.25;;;;;;;;;;5020533;28;20498;-60
2022/12/25 12:20:32;;;;;;;23.67;20.00;;;;;;;;;;5031464;28;20133;-60
2022/12/25 12:22:59;;;;;;;23.52;20.17;;;;;;;;;;5030879;28;20029;-60
2022/12/25 12:25:25;;;;;;;22.58;19.42;;;;;;;;;;5030583;28;20034;-60
2022/12/25 12:27:53;;;;;;;22.95;20.55;;;;;;;;;;5031001;28;20057;-59
2022/12/25 12:30:25;;;;;;;26.70;20.45;;;;;;;;;;5040076;23;20113;-61
2022/12/25 12:32:53;;;;;;;24.67;20.00;;;;;;;;;;5010404;28;20029;-63
2022/12/25 12:35:21;;;;;;;23.90;20.83;;;;;;;;;;5011187;28;20030;-61
2022/12/25 12:37:50;;;;;;;22.73;20.33;;;;;;;;;;5010448;28;20342;-64
2022/12/25 12:40:25;;;;;;;23.17;20.60;;;;;;;;;;5010458;28;20029;-63
2022/12/25 12:42:51;;;;;;;22.95;20.52;;;;;;;;;;5011634;28;20032;-64
2022/12/25 12:45:23;;;;;;;24.00;20.67;;;;;;;;;;5010698;28;20022;-61
2022/12/25 12:47:50;;;;;;;22.67;20.17;;;;;;;;;;5011562;28;20044;-63
2022/12/25 12:50:31;;;;;;;22.17;19.63;;;;;;;;;;4663952;28;10001276;-61
2022/12/25 12:52:57;;;;;;;22.85;20.45;;;;;;;;;;5005466;28;20025;-63
2022/12/25 12:55:31;;;;;;;22.27;19.90;;;;;;;;;;4990224;28;20084;-57
2022/12/25 12:58:01;;;;;;;22.38;19.98;;;;;;;;;;5008347;28;20041;-57
2022/12/25 13:00:32;;;;;;;23.27;20.15;;;;;;;;;;4995168;28;20116;-63
2022/12/25 13:03:18;;;;;;;23.20;20.42;;;;;;;;;;4992099;28;20052;-63
2022/12/25 13:05:49;;;;;;;24.25;20.60;;;;;;;;;;4992518;28;20033;-63
2022/12/25 13:08:23;;;;;;;38.60;33.58;;;;;;;;;;4999631;28;20038;-59
2022/12/25 13:11:02;;;;;;;35.30;30.23;;;;;;;;;;5012003;28;20037;-64
2022/12/25 13:13:40;;;;;;;107.68;77.82;;;;;;;;;;5011285;28;20100;-59
2022/12/25 13:16:06;;;;;;;36.72;31.35;;;;;;;;;;5011885;28;20033;-64
2022/12/25 13:18:33;;;;;;;43.00;36.38;;;;;;;;;;5012007;28;20105;-65
2022/12/25 13:21:01;;;;;;;40.40;35.13;;;;;;;;;;5012433;28;20367;-62
2022/12/25 13:23:31;;;;;;;25.52;21.77;;;;;;;;;;4995153;28;20034;-61
2022/12/25 13:25:58;;;;;;;25.73;23.00;;;;;;;;;;5004163;28;20042;-60
2022/12/25 13:28:25;;;;;;;30.35;27.20;;;;;;;;;;5003170;28;20022;-61
2022/12/25 13:30:51;;;;;;;26.25;23.17;;;;;;;;;;5004599;28;20055;-62
2022/12/25 13:33:19;;;;;;;26.52;23.60;;;;;;;;;;5002879;28;20475;-59
2022/12/25 13:35:45;;;;;;;25.60;22.92;;;;;;;;;;5002084;28;20652;-66
2022/12/25 13:38:15;;;;;;;45.85;40.28;;;;;;;;;;5002755;28;20054;-64
2022/12/25 13:42:04;;;;;;;27.27;24.05;;;;;;;;;;4985086;28;20499;-65
2022/12/25 13:43:33;;;;;;;61.95;45.53;;;;;;;;;;5002739;28;20041;-62
2022/12/25 13:45:59;;;;;;;29.60;26.42;;;;;;;;;;5001955;28;20026;-60
2022/12/25 13:48:25;;;;;;;28.98;25.08;;;;;;;;;;5003883;28;20501;-64
2022/12/25 13:50:59;;;;;;;27.20;24.35;;;;;;;;;;5003401;28;20019;-65
2022/12/25 13:53:25;;;;;;;25.33;22.55;;;;;;;;;;5008688;28;20065;-61
2022/12/25 13:55:52;;;;;;;30.50;23.33;;;;;;;;;;5003915;28;20026;-58
2022/12/25 13:58:22;;;;;;;24.17;21.67;;;;;;;;;;5001844;28;20053;-63
2022/12/25 14:00:51;;;;;;;24.98;22.40;;;;;;;;;;5004325;28;20034;-61
2022/12/25 14:03:31;;;;;;;26.02;23.00;;;;;;;;;;5001322;28;20870;-62
2022/12/25 14:05:59;;;;;;;25.02;22.42;;;;;;;;;;5007966;28;20448;-62
2022/12/25 14:08:26;;;;;;;26.27;23.63;;;;;;;;;;5014004;28;20109;-62
2022/12/25 14:10:53;;;;;;;27.88;23.63;;;;;;;;;;5014041;28;20026;-63
2022/12/25 14:13:20;;;;;;;26.98;24.17;;;;;;;;;;5008668;28;20024;-64
2022/12/25 14:15:46;;;;;;;25.75;23.05;;;;;;;;;;5011918;28;20025;-65
2022/12/25 14:18:20;;;;;;;27.58;24.63;;;;;;;;;;5019555;28;20049;-64
2022/12/25 14:20:58;;;;;;;25.67;22.98;;;;;;;;;;5004407;28;20033;-61
2022/12/25 14:23:24;;;;;;;25.45;22.73;;;;;;;;;;5015652;28;20050;-62
2022/12/25 14:25:50;;;;;;;25.67;22.90;;;;;;;;;;5000607;28;20033;-63
2022/12/25 14:28:18;;;;;;;26.00;23.25;;;;;;;;;;4998536;28;20022;-61
2022/12/25 14:30:44;;;;;;;25.88;23.02;;;;;;;;;;4652099;28;9999828;-63
2022/12/25 14:33:30;;;;;;;25.17;22.60;;;;;;;;;;5009488;28;20045;-62
2022/12/25 14:35:56;;;;;;;24.80;22.20;;;;;;;;;;5010236;28;20036;-64
2022/12/25 14:38:33;;;;;;;27.40;23.88;;;;;;;;;;5010379;28;20065;-65
2022/12/25 14:41:00;;;;;;;24.63;22.02;;;;;;;;;;5010128;28;20029;-64
2022/12/25 14:43:27;;;;;;;25.00;22.48;;;;;;;;;;5009027;28;20135;-65
2022/12/25 14:45:55;;;;;;;26.60;23.90;;;;;;;;;;5009803;28;20057;-65
2022/12/25 14:48:25;;;;;;;24.42;21.83;;;;;;;;;;4992807;28;20390;-65
2022/12/25 14:50:54;;;;;;;24.95;22.45;;;;;;;;;;5009838;28;20475;-63
2022/12/25 14:53:21;;;;;;;25.52;22.92;;;;;;;;;;5010696;28;20109;-62
2022/12/25 14:55:48;;;;;;;24.67;22.17;;;;;;;;;;5012132;28;20048;-61
2022/12/25 14:58:21;;;;;;;25.48;22.88;;;;;;;;;;5013157;28;20052;-62
2022/12/25 15:00:56;;;;;;;24.88;22.23;;;;;;;;;;5012773;28;20058;-63
2022/12/25 15:03:35;;;;;;;24.95;22.42;;;;;;;;;;4662913;28;9999711;-64
2022/12/25 15:06:05;;;;;;;25.83;23.10;;;;;;;;;;5009672;28;20356;-62
2022/12/25 15:08:32;;;;;;;26.27;23.58;;;;;;;;;;4985418;28;20029;-63
2022/12/25 15:10:58;;;;;;;26.40;23.60;;;;;;;;;;4997318;28;20026;-67
2022/12/25 15:13:25;;;;;;;25.38;22.80;;;;;;;;;;4998324;28;20022;-63
2022/12/25 15:15:53;;;;;;;26.48;23.88;;;;;;;;;;4991779;28;20034;-66
2022/12/25 15:18:22;;;;;;;25.77;23.17;;;;;;;;;;4990018;28;20031;-65
2022/12/25 15:20:51;;;;;;;26.65;23.95;;;;;;;;;;4989845;28;20414;-64
2022/12/25 15:23:17;;;;;;;29.45;26.60;;;;;;;;;;4988612;28;20046;-64
2022/12/25 15:25:43;;;;;;;29.40;26.52;;;;;;;;;;4971885;28;20049;-66
2022/12/25 15:28:10;;;;;;;29.35;26.52;;;;;;;;;;4990539;28;20037;-65
2022/12/25 15:30:38;;;;;;;29.60;26.90;;;;;;;;;;4972227;28;20464;-64
2022/12/25 15:33:05;;;;;;;29.05;26.15;;;;;;;;;;4989702;28;20052;-62
2022/12/25 15:35:32;;;;;;;30.00;27.10;;;;;;;;;;4989855;28;20661;-64
2022/12/25 15:37:58;;;;;;;31.10;28.10;;;;;;;;;;4994832;28;20034;-65
2022/12/25 15:40:24;;;;;;;30.83;28.02;;;;;;;;;;4990413;28;20636;-64
2022/12/25 15:42:50;;;;;;;32.78;29.73;;;;;;;;;;4991095;28;20062;-63
2022/12/25 15:45:19;;;;;;;32.47;29.48;;;;;;;;;;4992128;28;20026;-63
2022/12/25 15:47:45;;;;;;;31.63;28.83;;;;;;;;;;5012374;28;20025;-59
2022/12/25 15:50:11;;;;;;;31.90;29.00;;;;;;;;;;5012257;28;20497;-62
2022/12/25 15:52:37;;;;;;;35.47;32.08;;;;;;;;;;5012001;28;20117;-62
2022/12/25 15:55:04;;;;;;;35.85;32.15;;;;;;;;;;4660753;28;9999877;-61
2022/12/25 15:57:32;;;;;;;36.35;32.95;;;;;;;;;;5005448;28;20063;-63
2022/12/25 15:59:58;;;;;;;35.58;32.28;;;;;;;;;;4999297;28;20113;-66
2022/12/25 16:02:24;;;;;;;33.45;30.25;;;;;;;;;;5008615;28;20121;-62
2022/12/25 16:04:53;;;;;;;33.25;30.13;;;;;;;;;;5007886;28;20076;-60